createdAt,value
2017-12-16T00:00:23.434Z,96206.05
2017-12-16T00:00:55.067Z,96208.92
2017-12-16T00:01:26.803Z,96206.46
2017-12-16T00:01:58.451Z,96213.28
2017-12-16T00:02:30.395Z,96215.00
2017-12-16T00:03:02.070Z,96214.47
2017-12-16T00:03:33.986Z,96209.78
2017-12-16T00:04:05.627Z,96216.25
2017-12-16T00:04:37.271Z,96208.53
2017-12-16T00:05:09.146Z,96207.23
2017-12-16T00:05:40.778Z,96211.89
2017-12-16T00:06:12.402Z,96214.02
2017-12-16T00:06:44.144Z,96210.67
2017-12-16T00:07:15.795Z,96212.84
2017-12-16T00:07:47.662Z,96213.70
2017-12-16T00:08:19.377Z,96215.48
2017-12-16T00:08:51.016Z,96212.42
2017-12-16T00:09:22.657Z,96214.14
2017-12-16T00:09:54.300Z,96217.85
2017-12-16T00:10:25.947Z,96211.47
2017-12-16T00:10:57.583Z,96210.91
2017-12-16T00:11:29.227Z,96209.52
2017-12-16T00:12:00.871Z,96209.95
2017-12-16T00:12:32.542Z,96211.94
2017-12-16T00:13:04.171Z,96213.09
2017-12-16T00:13:35.803Z,96206.53
2017-12-16T00:14:07.434Z,96206.92
2017-12-16T00:14:39.082Z,96206.06
2017-12-16T00:15:10.707Z,96206.63
2017-12-16T00:15:42.417Z,96207.61
2017-12-16T00:16:14.016Z,96207.05
2017-12-16T00:16:45.954Z,96205.98
2017-12-16T00:17:17.593Z,96201.73
2017-12-16T00:17:49.267Z,96209.02
2017-12-16T00:18:20.891Z,96212.36
2017-12-16T00:18:52.526Z,96210.64
2017-12-16T00:19:24.163Z,96207.41
2017-12-16T00:19:55.803Z,96209.48
2017-12-16T00:20:27.451Z,96209.78
2017-12-16T00:20:59.107Z,96214.44
2017-12-16T00:21:30.735Z,96213.16
2017-12-16T00:22:02.402Z,96212.78
2017-12-16T00:22:34.031Z,96214.44
2017-12-16T00:23:05.698Z,96214.44
2017-12-16T00:23:37.323Z,96211.56
2017-12-16T00:24:08.949Z,96216.58
2017-12-16T00:24:40.814Z,96213.55
2017-12-16T00:25:12.533Z,96212.33
2017-12-16T00:25:44.174Z,96209.04
2017-12-16T00:26:15.813Z,96213.70
2017-12-16T00:26:47.458Z,96218.73
2017-12-16T00:27:19.117Z,96216.60
2017-12-16T00:27:50.747Z,96210.23
2017-12-16T00:28:22.578Z,96217.97
2017-12-16T00:28:54.201Z,96218.80
2017-12-16T00:29:26.271Z,96217.55
2017-12-16T00:29:57.920Z,96209.39
2017-12-16T00:30:29.590Z,96216.67
2017-12-16T00:31:01.214Z,96225.63
2017-12-16T00:31:33.156Z,96218.39
2017-12-16T00:32:04.782Z,96214.47
2017-12-16T00:32:36.439Z,96216.96
2017-12-16T00:33:08.082Z,96222.36
2017-12-16T00:33:39.752Z,96215.59
2017-12-16T00:34:11.378Z,96220.28
2017-12-16T00:34:43.234Z,96216.58
2017-12-16T00:35:14.862Z,96220.41
2017-12-16T00:35:46.530Z,96216.25
2017-12-16T00:36:18.152Z,96215.74
2017-12-16T00:36:50.074Z,96212.48
2017-12-16T00:37:21.832Z,96216.72
2017-12-16T00:37:53.474Z,96223.91
2017-12-16T00:38:25.116Z,96215.45
2017-12-16T00:38:56.774Z,96218.03
2017-12-16T00:39:28.406Z,96217.61
2017-12-16T00:40:00.038Z,96215.54
2017-12-16T00:40:31.711Z,96218.21
2017-12-16T00:41:03.339Z,96221.44
2017-12-16T00:41:34.971Z,96221.06
2017-12-16T00:42:06.837Z,96223.13
2017-12-16T00:42:38.507Z,96221.83
2017-12-16T00:43:10.137Z,96221.09
2017-12-16T00:43:41.767Z,96222.36
2017-12-16T00:44:13.390Z,96225.27
2017-12-16T00:44:45.126Z,96221.50
2017-12-16T00:45:16.764Z,96228.30
2017-12-16T00:45:48.405Z,96223.25
2017-12-16T00:46:20.075Z,96223.64
2017-12-16T00:46:51.738Z,96225.75
2017-12-16T00:47:23.367Z,96226.16
2017-12-16T00:47:54.989Z,96222.72
2017-12-16T00:48:26.819Z,96224.80
2017-12-16T00:48:58.568Z,96224.80
2017-12-16T00:49:30.206Z,96221.80
2017-12-16T00:50:01.852Z,96222.22
2017-12-16T00:50:33.489Z,96216.28
2017-12-16T00:51:05.154Z,96223.13
2017-12-16T00:51:37.084Z,96218.45
2017-12-16T00:52:08.725Z,96226.08
2017-12-16T00:52:40.395Z,96222.09
2017-12-16T00:53:12.023Z,96224.26
2017-12-16T00:53:43.854Z,96219.25
2017-12-16T00:54:15.601Z,96226.55
2017-12-16T00:54:47.241Z,96220.64
2017-12-16T00:55:18.885Z,96221.11
2017-12-16T00:55:50.524Z,96221.95
2017-12-16T00:56:22.166Z,96220.64
2017-12-16T00:56:53.842Z,96220.55
2017-12-16T00:57:25.474Z,96221.41
2017-12-16T00:57:57.105Z,96228.59
2017-12-16T00:58:28.914Z,96226.10
2017-12-16T00:59:00.685Z,96228.17
2017-12-16T00:59:32.324Z,96222.72
2017-12-16T01:00:03.968Z,96227.83
2017-12-16T01:00:35.616Z,96226.08
2017-12-16T01:01:07.253Z,96223.97
2017-12-16T01:01:38.895Z,96215.48
2017-12-16T01:02:10.558Z,96228.38
2017-12-16T01:02:42.451Z,96224.97
2017-12-16T01:03:14.078Z,96224.83
2017-12-16T01:03:45.710Z,96220.94
2017-12-16T01:04:17.343Z,96225.15
2017-12-16T01:04:48.971Z,96226.81
2017-12-16T01:05:20.639Z,96227.31
2017-12-16T01:05:52.262Z,96233.28
2017-12-16T01:06:23.891Z,96229.78
2017-12-16T01:06:55.553Z,96238.80
2017-12-16T01:07:27.178Z,96233.78
2017-12-16T01:07:58.801Z,96232.48
2017-12-16T01:08:30.547Z,96232.87
2017-12-16T01:09:02.207Z,96234.05
2017-12-16T01:09:34.141Z,96235.45
2017-12-16T01:10:05.777Z,96234.77
2017-12-16T01:10:37.419Z,96235.42
2017-12-16T01:11:09.061Z,96236.25
2017-12-16T01:11:40.703Z,96231.65
2017-12-16T01:12:12.345Z,96235.98
2017-12-16T01:12:43.986Z,96233.02
2017-12-16T01:13:15.938Z,96235.13
2017-12-16T01:13:47.605Z,96235.48
2017-12-16T01:14:19.234Z,96232.01
2017-12-16T01:14:51.068Z,96232.80
2017-12-16T01:15:22.814Z,96235.42
2017-12-16T01:15:54.451Z,96236.70
2017-12-16T01:16:26.094Z,96231.77
2017-12-16T01:16:57.770Z,96239.87
2017-12-16T01:17:29.398Z,96235.56
2017-12-16T01:18:01.258Z,96235.69
2017-12-16T01:18:32.890Z,96233.49
2017-12-16T01:19:04.517Z,96236.96
2017-12-16T01:19:36.256Z,96236.96
2017-12-16T01:20:07.882Z,96235.24
2017-12-16T01:20:39.510Z,96238.66
2017-12-16T01:21:11.134Z,96242.30
2017-12-16T01:21:42.762Z,96236.31
2017-12-16T01:22:14.462Z,96241.53
2017-12-16T01:22:46.107Z,96240.14
2017-12-16T01:23:17.746Z,96239.42
2017-12-16T01:23:49.391Z,96240.26
2017-12-16T01:24:21.033Z,96236.88
2017-12-16T01:24:52.862Z,96238.69
2017-12-16T01:25:24.486Z,96242.00
2017-12-16T01:25:56.119Z,96238.56
2017-12-16T01:26:27.746Z,96239.84
2017-12-16T01:26:59.370Z,96244.56
2017-12-16T01:27:31.191Z,96245.80
2017-12-16T01:28:02.836Z,96240.73
2017-12-16T01:28:34.474Z,96242.52
2017-12-16T01:29:06.114Z,96239.52
2017-12-16T01:29:37.795Z,96236.70
2017-12-16T01:30:09.418Z,96243.08
2017-12-16T01:30:41.049Z,96245.95
2017-12-16T01:31:12.684Z,96241.39
2017-12-16T01:31:44.325Z,96240.49
2017-12-16T01:32:15.965Z,96239.66
2017-12-16T01:32:47.642Z,96236.67
2017-12-16T01:33:19.262Z,96240.02
2017-12-16T01:33:51.135Z,96240.49
2017-12-16T01:34:22.763Z,96233.31
2017-12-16T01:34:54.390Z,96239.25
2017-12-16T01:35:26.126Z,96237.14
2017-12-16T01:35:57.765Z,96243.52
2017-12-16T01:36:29.409Z,96239.28
2017-12-16T01:37:01.050Z,96243.08
2017-12-16T01:37:32.695Z,96243.10
2017-12-16T01:38:04.363Z,96240.11
2017-12-16T01:38:35.991Z,96237.64
2017-12-16T01:39:07.875Z,96243.10
2017-12-16T01:39:39.874Z,96241.41
2017-12-16T01:40:12.104Z,96242.13
2017-12-16T01:40:43.734Z,96243.10
2017-12-16T01:41:15.361Z,96240.94
2017-12-16T01:41:46.982Z,96240.49
2017-12-16T01:42:18.610Z,96239.69
2017-12-16T01:42:50.342Z,96240.44
2017-12-16T01:43:21.984Z,96243.52
2017-12-16T01:43:53.870Z,96247.85
2017-12-16T01:44:25.490Z,96243.13
2017-12-16T01:44:57.217Z,96245.66
2017-12-16T01:45:28.859Z,96249.02
2017-12-16T01:46:00.501Z,96258.77
2017-12-16T01:46:32.139Z,96250.31
2017-12-16T01:47:03.767Z,96254.17
2017-12-16T01:47:35.427Z,96252.06
2017-12-16T01:48:07.068Z,96258.50
2017-12-16T01:48:38.710Z,96254.80
2017-12-16T01:49:10.374Z,96252.57
2017-12-16T01:49:42.003Z,96242.30
2017-12-16T01:50:13.944Z,96257.97
2017-12-16T01:50:45.584Z,96264.68
2017-12-16T01:51:18.418Z,96260.91
2017-12-16T01:51:50.046Z,96260.55
2017-12-16T01:52:21.682Z,96261.00
2017-12-16T01:52:53.302Z,96258.92
2017-12-16T01:53:24.925Z,96257.97
2017-12-16T01:53:56.745Z,96260.11
2017-12-16T01:54:28.422Z,96257.17
2017-12-16T01:55:00.052Z,96255.95
2017-12-16T01:55:31.871Z,96256.73
2017-12-16T01:56:03.542Z,96250.44
2017-12-16T01:56:35.219Z,96254.17
2017-12-16T01:57:06.846Z,96255.53
2017-12-16T01:57:38.470Z,96253.43
2017-12-16T01:58:10.105Z,96254.80
2017-12-16T01:58:42.074Z,96252.66
2017-12-16T01:59:13.719Z,96257.70
2017-12-16T01:59:45.346Z,96254.31
2017-12-16T02:00:17.290Z,96254.31
2017-12-16T02:00:48.938Z,96258.92
2017-12-16T02:01:20.603Z,96254.59
2017-12-16T02:01:52.235Z,96259.22
2017-12-16T02:02:24.102Z,96258.83
2017-12-16T02:02:55.730Z,96257.64
2017-12-16T02:03:27.354Z,96253.31
2017-12-16T02:03:59.090Z,96255.80
2017-12-16T02:04:30.758Z,96255.80
2017-12-16T02:05:03.116Z,96254.98
2017-12-16T02:05:34.740Z,96259.66
2017-12-16T02:06:06.566Z,96258.77
2017-12-16T02:06:38.247Z,96254.95
2017-12-16T02:07:09.878Z,96259.58
2017-12-16T02:07:41.737Z,96256.61
2017-12-16T02:08:13.362Z,96257.14
2017-12-16T02:08:45.095Z,96254.56
2017-12-16T02:09:16.936Z,96253.41
2017-12-16T02:09:48.687Z,96251.30
2017-12-16T02:10:20.327Z,96252.57
2017-12-16T02:10:51.968Z,96247.02
2017-12-16T02:11:24.497Z,96248.72
2017-12-16T02:11:56.323Z,96250.87
2017-12-16T02:12:27.951Z,96251.77
2017-12-16T02:12:59.574Z,96252.54
2017-12-16T02:13:31.409Z,96253.76
2017-12-16T02:14:03.243Z,96253.34
2017-12-16T02:14:35.000Z,96258.12
2017-12-16T02:15:06.947Z,96253.55
2017-12-16T02:15:38.591Z,96256.88
2017-12-16T02:16:10.233Z,96256.84
2017-12-16T02:16:41.873Z,96260.81
2017-12-16T02:17:13.518Z,96258.68
2017-12-16T02:17:45.156Z,96258.20
2017-12-16T02:18:16.817Z,96256.98
2017-12-16T02:18:48.682Z,96253.97
2017-12-16T02:19:20.350Z,96254.27
2017-12-16T02:19:51.988Z,96253.41
2017-12-16T02:20:23.623Z,96259.28
2017-12-16T02:20:55.245Z,96256.73
2017-12-16T02:21:26.959Z,96255.45
2017-12-16T02:21:58.598Z,96257.50
2017-12-16T02:22:30.240Z,96257.31
2017-12-16T02:23:01.885Z,96255.72
2017-12-16T02:23:33.524Z,96256.67
2017-12-16T02:24:05.168Z,96259.25
2017-12-16T02:24:36.808Z,96256.58
2017-12-16T02:25:08.495Z,96256.67
2017-12-16T02:25:40.122Z,96257.53
2017-12-16T02:26:11.751Z,96252.95
2017-12-16T02:26:43.685Z,96252.16
2017-12-16T02:27:15.328Z,96255.53
2017-12-16T02:27:46.966Z,96255.95
2017-12-16T02:28:19.002Z,96261.38
2017-12-16T02:28:51.562Z,96259.48
2017-12-16T02:29:24.053Z,96256.58
2017-12-16T02:29:56.916Z,96259.48
2017-12-16T02:30:29.631Z,96262.04
2017-12-16T02:31:01.258Z,96262.04
2017-12-16T02:31:32.887Z,96263.31
2017-12-16T02:32:04.514Z,96253.49
2017-12-16T02:32:36.182Z,96262.09
2017-12-16T02:33:07.811Z,96253.16
2017-12-16T02:33:39.442Z,96254.86
2017-12-16T02:34:12.383Z,96258.21
2017-12-16T02:34:44.017Z,96260.28
2017-12-16T02:35:16.070Z,96261.95
2017-12-16T02:35:47.697Z,96264.95
2017-12-16T02:36:19.335Z,96263.20
2017-12-16T02:36:50.962Z,96259.96
2017-12-16T02:37:22.599Z,96261.23
2017-12-16T02:37:54.310Z,96264.27
2017-12-16T02:38:26.259Z,96267.91
2017-12-16T02:38:57.890Z,96269.19
2017-12-16T02:39:29.979Z,96270.46
2017-12-16T02:40:01.606Z,96272.98
2017-12-16T02:40:34.299Z,96273.96
2017-12-16T02:41:05.934Z,96273.10
2017-12-16T02:41:38.075Z,96273.16
2017-12-16T02:42:09.702Z,96272.86
2017-12-16T02:42:41.734Z,96275.86
2017-12-16T02:43:13.751Z,96277.55
2017-12-16T02:43:46.668Z,96274.85
2017-12-16T02:44:18.327Z,96279.52
2017-12-16T02:44:50.260Z,96275.56
2017-12-16T02:45:22.833Z,96276.70
2017-12-16T02:45:54.502Z,96282.30
2017-12-16T02:46:27.275Z,96285.36
2017-12-16T02:46:59.623Z,96284.44
2017-12-16T02:47:31.254Z,96282.03
2017-12-16T02:48:02.891Z,96282.92
2017-12-16T02:48:34.716Z,96280.78
2017-12-16T02:49:06.470Z,96284.08
2017-12-16T02:49:38.112Z,96290.46
2017-12-16T02:50:09.801Z,96288.33
2017-12-16T02:50:41.421Z,96282.78
2017-12-16T02:51:13.043Z,96288.71
2017-12-16T02:51:44.675Z,96285.45
2017-12-16T02:52:16.319Z,96283.34
2017-12-16T02:52:47.963Z,96285.03
2017-12-16T02:53:19.604Z,96282.03
2017-12-16T02:53:51.247Z,96288.73
2017-12-16T02:54:22.885Z,96285.36
2017-12-16T02:54:54.530Z,96285.03
2017-12-16T02:55:26.158Z,96285.42
2017-12-16T02:55:57.815Z,96289.69
2017-12-16T02:56:29.643Z,96287.16
2017-12-16T02:57:01.335Z,96290.58
2017-12-16T02:57:32.966Z,96284.31
2017-12-16T02:58:04.595Z,96283.88
2017-12-16T02:58:36.331Z,96288.97
2017-12-16T02:59:07.971Z,96288.61
2017-12-16T02:59:39.611Z,96284.41
2017-12-16T03:00:11.248Z,96285.70
2017-12-16T03:00:42.898Z,96288.26
2017-12-16T03:01:14.537Z,96289.03
2017-12-16T03:01:46.180Z,96287.02
2017-12-16T03:02:17.832Z,96287.02
2017-12-16T03:02:49.774Z,96291.34
2017-12-16T03:03:21.398Z,96290.39
2017-12-16T03:03:53.026Z,96293.78
2017-12-16T03:04:24.655Z,96290.01
2017-12-16T03:04:56.286Z,96290.42
2017-12-16T03:05:27.918Z,96286.66
2017-12-16T03:05:59.546Z,96292.25
2017-12-16T03:06:31.210Z,96293.89
2017-12-16T03:07:02.834Z,96293.39
2017-12-16T03:07:34.458Z,96301.91
2017-12-16T03:08:06.193Z,96301.43
2017-12-16T03:08:37.837Z,96298.08
2017-12-16T03:09:09.473Z,96301.13
2017-12-16T03:09:41.118Z,96301.55
2017-12-16T03:10:12.761Z,96300.27
2017-12-16T03:10:44.433Z,96300.58
2017-12-16T03:11:16.096Z,96297.63
2017-12-16T03:11:47.923Z,96300.62
2017-12-16T03:12:19.551Z,96301.05
2017-12-16T03:12:51.183Z,96304.84
2017-12-16T03:13:22.923Z,96304.84
2017-12-16T03:13:54.561Z,96308.70
2017-12-16T03:14:26.199Z,96302.41
2017-12-16T03:14:57.843Z,96309.64
2017-12-16T03:15:29.486Z,96311.75
2017-12-16T03:16:01.310Z,96307.84
2017-12-16T03:16:33.078Z,96314.61
2017-12-16T03:17:04.719Z,96308.73
2017-12-16T03:17:36.361Z,96315.52
2017-12-16T03:18:08.000Z,96309.92
2017-12-16T03:18:39.641Z,96313.33
2017-12-16T03:19:11.283Z,96318.46
2017-12-16T03:19:42.928Z,96313.83
2017-12-16T03:20:14.567Z,96317.09
2017-12-16T03:20:46.212Z,96316.23
2017-12-16T03:21:17.843Z,96317.58
2017-12-16T03:21:49.514Z,96309.95
2017-12-16T03:22:21.141Z,96319.65
2017-12-16T03:22:53.091Z,96319.73
2017-12-16T03:23:24.729Z,96318.38
2017-12-16T03:23:56.399Z,96323.72
2017-12-16T03:24:28.026Z,96322.56
2017-12-16T03:24:59.885Z,96318.73
2017-12-16T03:25:31.517Z,96323.87
2017-12-16T03:26:03.245Z,96324.34
2017-12-16T03:26:34.887Z,96325.55
2017-12-16T03:27:06.527Z,96319.32
2017-12-16T03:27:38.194Z,96324.84
2017-12-16T03:28:09.818Z,96323.45
2017-12-16T03:28:41.481Z,96325.23
2017-12-16T03:29:13.111Z,96323.98
2017-12-16T03:29:44.778Z,96326.42
2017-12-16T03:30:16.407Z,96333.21
2017-12-16T03:30:48.031Z,96331.61
2017-12-16T03:31:19.663Z,96335.46
2017-12-16T03:31:51.305Z,96336.20
2017-12-16T03:32:22.945Z,96337.52
2017-12-16T03:32:54.623Z,96337.57
2017-12-16T03:33:26.246Z,96332.91
2017-12-16T03:33:58.181Z,96333.75
2017-12-16T03:34:30.130Z,96336.63
2017-12-16T03:35:01.772Z,96340.36
2017-12-16T03:35:33.421Z,96335.27
2017-12-16T03:36:05.053Z,96333.07
2017-12-16T03:36:36.698Z,96334.67
2017-12-16T03:37:08.338Z,96332.98
2017-12-16T03:37:39.982Z,96333.13
2017-12-16T03:38:11.663Z,96336.63
2017-12-16T03:38:43.291Z,96330.27
2017-12-16T03:39:14.920Z,96335.46
2017-12-16T03:39:46.857Z,96334.52
2017-12-16T03:40:18.498Z,96334.19
2017-12-16T03:40:50.138Z,96341.40
2017-12-16T03:41:21.798Z,96340.56
2017-12-16T03:41:53.441Z,96337.19
2017-12-16T03:42:25.373Z,96336.71
2017-12-16T03:42:57.012Z,96334.60
2017-12-16T03:43:28.686Z,96340.56
2017-12-16T03:44:00.306Z,96341.28
2017-12-16T03:44:31.939Z,96341.64
2017-12-16T03:45:03.582Z,96335.37
2017-12-16T03:45:35.225Z,96340.87
2017-12-16T03:46:06.868Z,96344.17
2017-12-16T03:46:38.510Z,96341.92
2017-12-16T03:47:10.134Z,96344.55
2017-12-16T03:47:41.763Z,96334.52
2017-12-16T03:48:13.385Z,96345.58
2017-12-16T03:48:45.078Z,96340.84
2017-12-16T03:49:16.718Z,96352.74
2017-12-16T03:49:48.357Z,96344.58
2017-12-16T03:50:23.391Z,96345.47
2017-12-16T03:50:55.038Z,96347.97
2017-12-16T03:51:26.856Z,96343.42
2017-12-16T03:51:58.482Z,96353.21
2017-12-16T03:52:30.256Z,96353.19
2017-12-16T03:53:01.896Z,96352.47
2017-12-16T03:53:33.569Z,96346.02
2017-12-16T03:54:05.195Z,96347.72
2017-12-16T03:54:36.832Z,96353.62
2017-12-16T03:55:08.696Z,96351.41
2017-12-16T03:55:40.334Z,96351.91
2017-12-16T03:56:11.958Z,96347.16
2017-12-16T03:56:43.698Z,96350.13
2017-12-16T03:57:15.338Z,96352.27
2017-12-16T03:57:46.979Z,96350.22
2017-12-16T03:58:18.621Z,96343.39
2017-12-16T03:58:50.277Z,96347.39
2017-12-16T03:59:21.946Z,96346.09
2017-12-16T03:59:53.589Z,96351.08
2017-12-16T04:00:25.217Z,96353.19
2017-12-16T04:00:56.838Z,96349.83
2017-12-16T04:01:28.467Z,96348.55
2017-12-16T04:02:00.116Z,96346.30
2017-12-16T04:02:31.756Z,96353.09
2017-12-16T04:03:03.401Z,96337.78
2017-12-16T04:03:35.350Z,96350.23
2017-12-16T04:04:06.992Z,96344.86
2017-12-16T04:04:38.654Z,96346.91
2017-12-16T04:05:10.282Z,96343.58
2017-12-16T04:05:41.915Z,96345.30
2017-12-16T04:06:13.587Z,96344.35
2017-12-16T04:06:45.219Z,96342.75
2017-12-16T04:07:16.845Z,96345.27
2017-12-16T04:07:48.483Z,96344.05
2017-12-16T04:08:20.124Z,96346.12
2017-12-16T04:08:51.766Z,96343.61
2017-12-16T04:09:23.408Z,96344.47
2017-12-16T04:09:55.052Z,96342.36
2017-12-16T04:10:26.695Z,96343.28
2017-12-16T04:10:58.336Z,96341.59
2017-12-16T04:11:30.006Z,96344.52
2017-12-16T04:12:01.631Z,96340.73
2017-12-16T04:12:33.570Z,96343.28
2017-12-16T04:13:05.211Z,96345.83
2017-12-16T04:13:36.854Z,96348.80
2017-12-16T04:14:08.492Z,96342.86
2017-12-16T04:14:40.136Z,96342.61
2017-12-16T04:15:11.776Z,96347.66
2017-12-16T04:15:43.426Z,96348.91
2017-12-16T04:16:15.094Z,96350.98
2017-12-16T04:16:46.722Z,96347.16
2017-12-16T04:17:18.349Z,96347.27
2017-12-16T04:17:49.988Z,96347.69
2017-12-16T04:18:21.628Z,96349.36
2017-12-16T04:18:53.270Z,96343.45
2017-12-16T04:19:24.899Z,96351.41
2017-12-16T04:19:56.553Z,96354.40
2017-12-16T04:20:28.197Z,96351.52
2017-12-16T04:20:59.840Z,96351.19
2017-12-16T04:21:31.521Z,96359.17
2017-12-16T04:22:03.142Z,96355.77
2017-12-16T04:22:35.015Z,96356.59
2017-12-16T04:23:06.645Z,96355.65
2017-12-16T04:23:38.275Z,96354.31
2017-12-16T04:24:09.910Z,96358.20
2017-12-16T04:24:41.646Z,96359.01
2017-12-16T04:25:13.508Z,96349.30
2017-12-16T04:25:45.135Z,96353.09
2017-12-16T04:26:16.874Z,96356.04
2017-12-16T04:26:48.541Z,96350.98
2017-12-16T04:27:20.171Z,96354.05
2017-12-16T04:27:52.001Z,96349.05
2017-12-16T04:28:23.748Z,96357.13
2017-12-16T04:28:55.387Z,96354.57
2017-12-16T04:29:27.032Z,96357.52
2017-12-16T04:29:58.662Z,96361.03
2017-12-16T04:30:30.326Z,96360.48
2017-12-16T04:31:02.266Z,96353.86
2017-12-16T04:31:33.904Z,96358.90
2017-12-16T04:32:05.546Z,96357.70
2017-12-16T04:32:37.187Z,96356.96
2017-12-16T04:33:08.830Z,96356.85
2017-12-16T04:33:40.471Z,96354.41
2017-12-16T04:34:12.143Z,96360.67
2017-12-16T04:34:43.774Z,96354.72
2017-12-16T04:35:15.605Z,96359.84
2017-12-16T04:35:47.351Z,96362.42
2017-12-16T04:36:18.989Z,96354.97
2017-12-16T04:36:50.631Z,96357.94
2017-12-16T04:37:22.272Z,96356.57
2017-12-16T04:37:53.930Z,96346.89
2017-12-16T04:38:25.606Z,96347.62
2017-12-16T04:38:57.234Z,96355.71
2017-12-16T04:39:28.854Z,96359.16
2017-12-16T04:40:00.715Z,96350.64
2017-12-16T04:40:32.337Z,96357.45
2017-12-16T04:41:04.075Z,96356.66
2017-12-16T04:41:35.714Z,96359.95
2017-12-16T04:42:07.359Z,96356.60
2017-12-16T04:42:39.001Z,96355.38
2017-12-16T04:43:10.644Z,96361.29
2017-12-16T04:43:42.335Z,96360.07
2017-12-16T04:44:13.962Z,96360.93
2017-12-16T04:44:45.587Z,96361.40
2017-12-16T04:45:17.214Z,96363.09
2017-12-16T04:45:48.849Z,96363.62
2017-12-16T04:46:20.496Z,96362.67
2017-12-16T04:46:52.133Z,96368.72
2017-12-16T04:47:23.776Z,96363.17
2017-12-16T04:47:55.417Z,96365.28
2017-12-16T04:48:27.062Z,96367.36
2017-12-16T04:48:58.730Z,96367.03
2017-12-16T04:49:30.354Z,96365.87
2017-12-16T04:50:01.988Z,96367.47
2017-12-16T04:50:33.627Z,96370.95
2017-12-16T04:51:05.269Z,96365.84
2017-12-16T04:51:36.902Z,96368.77
2017-12-16T04:52:08.555Z,96367.42
2017-12-16T04:52:40.235Z,96364.90
2017-12-16T04:53:11.858Z,96371.69
2017-12-16T04:53:43.487Z,96367.00
2017-12-16T04:54:15.430Z,96364.02
2017-12-16T04:54:47.070Z,96364.06
2017-12-16T04:55:18.715Z,96361.95
2017-12-16T04:55:50.353Z,96366.61
2017-12-16T04:56:21.995Z,96369.55
2017-12-16T04:56:53.636Z,96365.73
2017-12-16T04:57:25.282Z,96365.67
2017-12-16T04:57:56.939Z,96363.12
2017-12-16T04:58:28.571Z,96360.13
2017-12-16T04:59:00.204Z,96361.52
2017-12-16T04:59:31.848Z,96366.06
2017-12-16T05:00:03.494Z,96364.34
2017-12-16T05:00:35.132Z,96367.42
2017-12-16T05:01:06.773Z,96362.79
2017-12-16T05:01:38.443Z,96366.89
2017-12-16T05:02:10.071Z,96364.25
2017-12-16T05:02:41.972Z,96367.42
2017-12-16T05:03:13.607Z,96371.25
2017-12-16T05:03:45.230Z,96373.27
2017-12-16T05:04:16.854Z,96374.22
2017-12-16T05:04:48.538Z,96372.11
2017-12-16T05:05:20.175Z,96376.68
2017-12-16T05:05:51.802Z,96374.22
2017-12-16T05:06:23.426Z,96376.68
2017-12-16T05:06:55.058Z,96376.16
2017-12-16T05:07:26.785Z,96368.61
2017-12-16T05:07:58.425Z,96371.55
2017-12-16T05:08:30.068Z,96369.91
2017-12-16T05:09:01.710Z,96368.70
2017-12-16T05:09:33.350Z,96372.44
2017-12-16T05:10:05.023Z,96372.41
2017-12-16T05:10:36.650Z,96379.20
2017-12-16T05:11:08.523Z,96376.17
2017-12-16T05:11:40.154Z,96376.56
2017-12-16T05:12:11.784Z,96376.12
2017-12-16T05:12:43.451Z,96368.91
2017-12-16T05:13:15.074Z,96375.23
2017-12-16T05:13:46.705Z,96376.09
2017-12-16T05:14:18.342Z,96376.04
2017-12-16T05:14:50.079Z,96371.97
2017-12-16T05:15:21.720Z,96374.30
2017-12-16T05:15:53.359Z,96377.48
2017-12-16T05:16:25.039Z,96377.03
2017-12-16T05:16:56.662Z,96379.12
2017-12-16T05:17:28.595Z,96382.00
2017-12-16T05:18:00.237Z,96384.47
2017-12-16T05:18:32.187Z,96386.96
2017-12-16T05:19:03.825Z,96390.23
2017-12-16T05:19:35.470Z,96385.19
2017-12-16T05:20:07.419Z,96389.55
2017-12-16T05:20:39.058Z,96385.72
2017-12-16T05:21:10.703Z,96387.13
2017-12-16T05:21:42.373Z,96382.47
2017-12-16T05:22:13.995Z,96381.97
2017-12-16T05:22:45.936Z,96389.19
2017-12-16T05:23:17.579Z,96387.49
2017-12-16T05:23:49.217Z,96392.65
2017-12-16T05:24:20.861Z,96386.30
2017-12-16T05:24:52.501Z,96387.66
2017-12-16T05:25:24.142Z,96386.72
2017-12-16T05:25:55.784Z,96386.27
2017-12-16T05:26:27.427Z,96387.80
2017-12-16T05:26:59.130Z,96390.05
2017-12-16T05:27:30.799Z,96389.41
2017-12-16T05:28:02.662Z,96389.09
2017-12-16T05:28:34.301Z,96394.64
2017-12-16T05:29:05.942Z,96389.88
2017-12-16T05:29:37.585Z,96389.48
2017-12-16T05:30:09.229Z,96391.62
2017-12-16T05:30:40.871Z,96394.50
2017-12-16T05:31:12.550Z,96394.92
2017-12-16T05:31:44.178Z,96394.12
2017-12-16T05:32:15.802Z,96395.70
2017-12-16T05:32:47.610Z,96395.37
2017-12-16T05:33:19.234Z,96398.86
2017-12-16T05:33:50.866Z,96398.48
2017-12-16T05:34:22.494Z,96394.20
2017-12-16T05:34:54.126Z,96395.87
2017-12-16T05:35:25.759Z,96394.95
2017-12-16T05:35:57.597Z,96406.46
2017-12-16T05:36:29.282Z,96403.02
2017-12-16T05:37:00.906Z,96399.61
2017-12-16T05:37:32.541Z,96400.36
2017-12-16T05:38:04.472Z,96407.98
2017-12-16T05:38:36.116Z,96397.39
2017-12-16T05:39:07.755Z,96402.80
2017-12-16T05:39:39.396Z,96401.49
2017-12-16T05:40:11.037Z,96405.85
2017-12-16T05:40:42.679Z,96399.52
2017-12-16T05:41:14.325Z,96400.44
2017-12-16T05:41:46.005Z,96406.84
2017-12-16T05:42:17.630Z,96403.14
2017-12-16T05:42:49.266Z,96402.00
2017-12-16T05:43:20.903Z,96408.69
2017-12-16T05:43:52.776Z,96399.84
2017-12-16T05:44:24.407Z,96409.27
2017-12-16T05:44:56.029Z,96408.80
2017-12-16T05:45:27.766Z,96416.56
2017-12-16T05:45:59.411Z,96419.53
2017-12-16T05:46:31.047Z,96420.39
2017-12-16T05:47:02.719Z,96419.95
2017-12-16T05:47:34.350Z,96421.25
2017-12-16T05:48:06.283Z,96418.37
2017-12-16T05:48:37.986Z,96422.50
2017-12-16T05:49:09.587Z,96425.91
2017-12-16T05:49:41.254Z,96420.83
2017-12-16T05:50:12.886Z,96422.00
2017-12-16T05:50:44.510Z,96424.22
2017-12-16T05:51:16.142Z,96430.91
2017-12-16T05:51:48.003Z,96426.27
2017-12-16T05:52:19.630Z,96427.77
2017-12-16T05:52:51.368Z,96431.12
2017-12-16T05:53:23.030Z,96430.23
2017-12-16T05:53:54.659Z,96427.80
2017-12-16T05:54:26.600Z,96427.45
2017-12-16T05:54:58.242Z,96433.01
2017-12-16T05:55:29.880Z,96434.65
2017-12-16T05:56:01.523Z,96429.59
2017-12-16T05:56:33.167Z,96438.97
2017-12-16T05:57:04.814Z,96436.95
2017-12-16T05:57:36.442Z,96435.67
2017-12-16T05:58:08.090Z,96436.97
2017-12-16T05:58:39.754Z,96437.47
2017-12-16T05:59:11.382Z,96445.48
2017-12-16T05:59:43.019Z,96441.19
2017-12-16T06:00:14.667Z,96438.25
2017-12-16T06:00:46.527Z,96435.22
2017-12-16T06:01:18.160Z,96436.00
2017-12-16T06:01:49.822Z,96432.26
2017-12-16T06:02:21.450Z,96439.05
2017-12-16T06:02:53.204Z,96439.83
2017-12-16T06:03:24.829Z,96442.02
2017-12-16T06:03:56.771Z,96441.66
2017-12-16T06:04:28.598Z,96436.11
2017-12-16T06:05:00.226Z,96443.33
2017-12-16T06:05:31.850Z,96448.89
2017-12-16T06:06:03.474Z,96444.27
2017-12-16T06:06:35.098Z,96447.62
2017-12-16T06:07:06.871Z,96443.46
2017-12-16T06:07:38.498Z,96444.32
2017-12-16T06:08:10.122Z,96440.91
2017-12-16T06:08:41.763Z,96441.77
2017-12-16T06:09:13.494Z,96440.58
2017-12-16T06:09:45.137Z,96437.58
2017-12-16T06:10:16.775Z,96434.20
2017-12-16T06:10:48.419Z,96443.90
2017-12-16T06:11:20.063Z,96443.96
2017-12-16T06:11:51.702Z,96441.48
2017-12-16T06:12:23.590Z,96437.62